createdAt,value
2023-04-18T00:03:10.553Z,98.76
2023-04-18T00:08:09.171Z,98.97
2023-04-18T00:13:08.252Z,98.86
2023-04-18T00:18:07.089Z,98.86
2023-04-18T00:23:06.087Z,98.97
2023-04-18T00:28:05.013Z,98.86
2023-04-18T00:33:03.989Z,98.70
2023-04-18T00:38:02.900Z,98.45
2023-04-18T00:43:01.870Z,98.29
2023-04-18T00:48:00.844Z,98.29
2023-04-18T00:52:59.866Z,98.08
2023-04-18T00:57:58.670Z,98.19
2023-04-18T01:02:57.694Z,98.39
2023-04-18T01:07:56.544Z,98.19
2023-04-18T01:12:55.539Z,98.08
2023-04-18T01:17:54.489Z,97.88
2023-04-18T01:22:53.523Z,97.56
2023-04-18T01:27:52.692Z,97.30
2023-04-18T01:32:51.383Z,97.30
2023-04-18T01:37:50.308Z,97.51
2023-04-18T01:42:49.219Z,97.51
2023-04-18T01:47:48.137Z,97.72
2023-04-18T01:52:47.154Z,97.82
2023-04-18T01:57:46.063Z,97.66
2023-04-18T02:02:45.362Z,97.55
2023-04-18T02:07:43.941Z,97.55
2023-04-18T02:12:42.941Z,97.55
2023-04-18T02:17:42.285Z,97.55
2023-04-18T02:22:40.999Z,97.55
2023-04-18T02:27:39.935Z,97.55
2023-04-18T02:32:38.718Z,97.55
2023-04-18T02:37:37.697Z,97.45
2023-04-18T02:42:36.573Z,97.45
2023-04-18T02:47:46.934Z,97.04
2023-04-18T02:52:34.479Z,96.42
2023-04-18T02:57:33.457Z,96.73
2023-04-18T03:02:32.500Z,96.62
2023-04-18T03:07:31.315Z,96.62
2023-04-18T03:12:30.319Z,96.52
2023-04-18T03:17:29.333Z,96.62
2023-04-18T03:22:28.196Z,96.73
2023-04-18T03:27:27.179Z,96.21
2023-04-18T03:32:26.142Z,96.05
2023-04-18T03:37:25.120Z,96.05
2023-04-18T03:42:24.001Z,96.05
2023-04-18T03:47:23.071Z,96.36
2023-04-18T03:52:21.996Z,96.36
2023-04-18T03:57:20.977Z,96.26
2023-04-18T04:02:19.971Z,95.74
2023-04-18T04:07:18.856Z,95.12
2023-04-18T04:12:17.663Z,95.43
2023-04-18T04:17:16.608Z,95.32
2023-04-18T04:22:15.650Z,94.92
2023-04-18T04:27:14.485Z,95.43
2023-04-18T04:32:13.471Z,95.43
2023-04-18T04:37:12.391Z,95.32
2023-04-18T04:42:11.357Z,95.43
2023-04-18T04:47:10.317Z,95.12
2023-04-18T04:52:09.254Z,95.32
2023-04-18T04:57:08.175Z,95.43
2023-04-18T05:02:07.217Z,95.53
2023-04-18T05:07:06.252Z,95.12
2023-04-18T05:12:05.088Z,95.22
2023-04-18T05:17:04.170Z,95.74
2023-04-18T05:22:02.945Z,94.50
2023-04-18T05:27:01.908Z,95.02
2023-04-18T05:32:00.848Z,94.46
2023-04-18T05:36:59.942Z,94.35
2023-04-18T05:41:58.755Z,93.32
2023-04-18T05:46:57.679Z,92.93
2023-04-18T05:51:56.661Z,89.44
2023-04-18T05:56:55.581Z,88.41
2023-04-18T06:01:54.579Z,82.47
2023-04-18T06:06:53.494Z,74.56
2023-04-18T06:11:52.443Z,72.89
2023-04-18T06:16:51.385Z,78.85
2023-04-18T06:21:50.508Z,81.93
2023-04-18T06:26:49.253Z,83.41
2023-04-18T06:31:48.290Z,84.95
2023-04-18T06:36:47.232Z,83.27
2023-04-18T06:41:46.131Z,83.99
2023-04-18T06:46:45.077Z,82.51
2023-04-18T06:51:44.002Z,82.41
2023-04-18T06:56:43.023Z,82.10
2023-04-18T07:01:41.950Z,82.20
2023-04-18T07:06:40.875Z,82.20
2023-04-18T07:11:39.804Z,82.62
2023-04-18T07:16:39.467Z,81.93
2023-04-18T07:21:37.761Z,83.33
2023-04-18T07:26:36.634Z,82.24
2023-04-18T07:31:35.644Z,82.86
2023-04-18T07:36:34.805Z,83.06
2023-04-18T07:41:33.487Z,84.09
2023-04-18T07:46:32.648Z,82.65
2023-04-18T07:51:31.436Z,83.78
2023-04-18T07:56:30.391Z,83.48
2023-04-18T08:01:29.311Z,83.89
2023-04-18T08:06:28.248Z,84.20
2023-04-18T08:11:27.200Z,83.78
2023-04-18T08:16:26.196Z,83.89
2023-04-18T08:21:25.109Z,83.58
2023-04-18T08:26:24.059Z,83.68
2023-04-18T08:31:23.178Z,84.30
2023-04-18T08:36:22.034Z,83.68
2023-04-18T08:41:20.863Z,84.26
2023-04-18T08:46:20.503Z,83.75
2023-04-18T08:51:18.768Z,83.13
2023-04-18T08:56:17.748Z,82.71
2023-04-18T09:01:16.738Z,83.50
2023-04-18T09:06:15.639Z,82.99
2023-04-18T09:11:14.575Z,84.01
2023-04-18T09:16:13.829Z,84.12
2023-04-18T09:21:12.566Z,82.89
2023-04-18T09:26:11.465Z,83.44
2023-04-18T09:31:10.356Z,84.05
2023-04-18T09:36:09.403Z,84.74
2023-04-18T09:41:08.250Z,84.22
2023-04-18T09:46:07.305Z,84.22
2023-04-18T09:51:06.198Z,84.01
2023-04-18T09:56:05.165Z,83.67
2023-04-18T10:01:04.078Z,83.42
2023-04-18T10:06:03.075Z,82.40
2023-04-18T10:11:02.023Z,82.46
2023-04-18T10:16:00.863Z,81.54
2023-04-18T10:20:59.832Z,82.12
2023-04-18T10:25:58.829Z,81.29
2023-04-18T10:30:57.887Z,80.99
2023-04-18T10:35:56.713Z,81.46
2023-04-18T10:40:55.663Z,81.67
2023-04-18T10:45:54.647Z,79.99
2023-04-18T10:50:53.547Z,81.73
2023-04-18T10:55:52.468Z,81.32
2023-04-18T11:00:51.534Z,80.60
2023-04-18T11:05:50.372Z,80.51
2023-04-18T11:10:49.427Z,80.91
2023-04-18T11:15:48.391Z,81.38
2023-04-18T11:20:47.361Z,81.59
2023-04-18T11:25:46.317Z,80.12
2023-04-18T11:30:45.317Z,80.02
2023-04-18T11:35:44.199Z,79.98
2023-04-18T11:40:43.070Z,80.35
2023-04-18T11:45:42.091Z,81.44
2023-04-18T11:50:40.988Z,79.57
2023-04-18T11:55:39.886Z,78.03
2023-04-18T12:00:38.945Z,78.17
2023-04-18T12:05:38.243Z,78.13
2023-04-18T12:10:36.732Z,77.83
2023-04-18T12:15:35.714Z,79.22
2023-04-18T12:20:34.584Z,77.18
2023-04-18T12:25:33.599Z,77.72
2023-04-18T12:30:33.379Z,77.52
2023-04-18T12:35:31.516Z,77.83
2023-04-18T12:40:30.442Z,77.28
2023-04-18T12:45:29.354Z,75.75
2023-04-18T12:50:28.328Z,76.46
2023-04-18T12:55:27.188Z,77.48
2023-04-18T13:00:26.121Z,76.56
2023-04-18T13:05:25.217Z,76.56
2023-04-18T13:10:24.125Z,76.67
2023-04-18T13:15:23.113Z,75.85
2023-04-18T13:20:22.034Z,75.75
2023-04-18T13:25:20.940Z,77.18
2023-04-18T13:30:19.949Z,75.65
2023-04-18T13:35:18.940Z,76.36
2023-04-18T13:40:17.830Z,76.77
2023-04-18T13:45:16.906Z,76.77
2023-04-18T13:50:15.697Z,77.42
2023-04-18T13:55:14.693Z,77.93
2023-04-18T14:00:13.572Z,77.42
2023-04-18T14:05:12.669Z,77.18
2023-04-18T14:10:11.527Z,77.38
2023-04-18T14:15:10.493Z,76.67
2023-04-18T14:20:09.516Z,77.08
2023-04-18T14:25:08.291Z,77.48
2023-04-18T14:30:07.593Z,76.67
2023-04-18T14:35:06.234Z,77.08
2023-04-18T14:40:05.595Z,77.08
2023-04-18T14:45:05.039Z,77.48
2023-04-18T14:50:02.985Z,78.30
2023-04-18T14:55:01.953Z,77.79
2023-04-18T15:00:00.848Z,77.79
2023-04-18T15:04:59.932Z,78.50
2023-04-18T15:09:58.775Z,78.81
2023-04-18T15:14:57.764Z,78.71
2023-04-18T15:19:56.644Z,79.02
2023-04-18T15:24:55.617Z,79.73
2023-04-18T15:29:54.577Z,78.81
2023-04-18T15:34:53.516Z,79.12
2023-04-18T15:39:52.449Z,80.04
2023-04-18T15:44:51.387Z,79.59
2023-04-18T15:49:50.332Z,80.10
2023-04-18T15:54:49.273Z,80.00
2023-04-18T15:59:48.203Z,80.30
2023-04-18T16:04:47.382Z,79.80
2023-04-18T16:09:46.278Z,80.30
2023-04-18T16:14:45.132Z,80.41
2023-04-18T16:19:44.158Z,80.82
2023-04-18T16:24:43.046Z,80.91
2023-04-18T16:29:41.955Z,80.98
2023-04-18T16:34:40.915Z,80.78
2023-04-18T16:39:39.876Z,80.68
2023-04-18T16:44:38.969Z,80.57
2023-04-18T16:49:37.877Z,80.57
2023-04-18T16:54:38.379Z,80.98
2023-04-18T16:59:35.644Z,80.68
2023-04-18T17:04:34.564Z,80.47
2023-04-18T17:09:33.483Z,78.94
2023-04-18T17:14:32.468Z,78.02
2023-04-18T17:19:31.393Z,77.51
2023-04-18T17:24:30.333Z,76.80
2023-04-18T17:29:29.360Z,75.68
2023-04-18T17:34:28.189Z,73.54
2023-04-18T17:39:27.158Z,73.54
2023-04-18T17:44:26.112Z,73.74
2023-04-18T17:49:25.154Z,74.08
2023-04-18T17:54:24.004Z,74.59
2023-04-18T17:59:23.010Z,74.38
2023-04-18T18:04:23.081Z,74.38
2023-04-18T18:09:20.880Z,74.22
2023-04-18T18:14:19.822Z,73.60
2023-04-18T18:19:18.753Z,73.30
2023-04-18T18:24:17.949Z,73.19
2023-04-18T18:29:16.868Z,72.07
2023-04-18T18:34:15.633Z,70.44
2023-04-18T18:39:14.736Z,69.32
2023-04-18T18:44:13.578Z,68.94
2023-04-18T18:49:12.566Z,69.35
2023-04-18T18:54:11.406Z,68.12
2023-04-18T18:59:10.500Z,67.30
2023-04-18T19:04:09.370Z,67.92
2023-04-18T19:09:08.312Z,68.43
2023-04-18T19:14:07.135Z,68.57
2023-04-18T19:19:06.250Z,68.97
2023-04-18T19:24:05.220Z,69.89
2023-04-18T19:29:04.053Z,70.64
2023-04-18T19:34:02.941Z,71.36
2023-04-18T19:39:01.882Z,71.80
2023-04-18T19:44:00.864Z,72.62
2023-04-18T19:48:59.802Z,73.13
2023-04-18T19:53:58.722Z,73.36
2023-04-18T19:58:57.705Z,73.68
2023-04-18T20:03:56.786Z,73.91
2023-04-18T20:08:55.772Z,74.11
2023-04-18T20:13:54.749Z,74.32
2023-04-18T20:18:55.117Z,74.43
2023-04-18T20:23:52.442Z,73.03
2023-04-18T20:28:51.366Z,73.64
2023-04-18T20:33:50.334Z,73.13
2023-04-18T20:38:49.271Z,72.31
2023-04-18T20:43:48.286Z,72.11
2023-04-18T20:48:47.203Z,71.73
2023-04-18T20:53:46.064Z,71.32
2023-04-18T20:58:45.033Z,70.02
2023-04-18T21:03:44.148Z,69.30
2023-04-18T21:08:42.964Z,69.40
2023-04-18T21:13:41.866Z,68.82
2023-04-18T21:18:40.843Z,69.43
2023-04-18T21:23:39.858Z,69.57
2023-04-18T21:28:38.740Z,70.60
2023-04-18T21:33:37.679Z,70.70
2023-04-18T21:38:36.644Z,71.04
2023-04-18T21:43:35.629Z,71.14
2023-04-18T21:48:34.584Z,71.08
2023-04-18T21:53:33.514Z,72.24
2023-04-18T21:58:32.464Z,72.75
2023-04-18T22:03:31.668Z,73.30
2023-04-18T22:08:30.305Z,73.50
2023-04-18T22:13:29.310Z,74.02
2023-04-18T22:18:28.274Z,74.43
2023-04-18T22:23:27.201Z,75.15
2023-04-18T22:28:26.164Z,75.39
2023-04-18T22:33:25.053Z,75.49
2023-04-18T22:38:24.065Z,75.94
2023-04-18T22:43:23.062Z,76.45
2023-04-18T22:48:21.899Z,77.00
2023-04-18T22:53:20.947Z,77.31
2023-04-18T22:58:19.804Z,78.03
2023-04-18T23:03:18.872Z,78.48
2023-04-18T23:08:17.751Z,78.79
2023-04-18T23:13:16.692Z,79.10
2023-04-18T23:18:15.653Z,79.44
2023-04-18T23:23:14.544Z,79.86
2023-04-18T23:28:13.535Z,80.82
2023-04-18T23:33:12.429Z,81.23
2023-04-18T23:38:11.567Z,81.65
2023-04-18T23:43:10.396Z,81.99
2023-04-18T23:48:09.320Z,82.20
2023-04-18T23:53:08.326Z,82.30
2023-04-18T23:58:07.205Z,81.79
